Westby, North Dakota
Current Conditions -  °F | °C
As of 3:52 AM on Wednesday 22 Oct 2014 (Local Time) from KISN Reporting Station
Broken Clouds Broken Clouds  
Wind Chill: 54°   Ceiling: 11000
Heat Index: 54°   Visibility: 10mi
Dew Point: 46°   Wind: 8mph
Humidity: 75%   Direction: 250°WSW
Pressure: 29.69"   Gusts: NA
Location:  48.5901°N, 103.922°W
Report Text: KISN 220852Z AUTO 25007KT 220V280 10SM BKN110 12/08 A2969 RMK AO2 PK WND 28030/0758 RAE20 SLP048 P0000 60000 T01220078 53018
Loading
Personal Weather Stations






























Interactive Weather Map
Tropical Storm Tracking
New forecast layout! Learn more

10-Day Weather Forecast

Advertisements
Track Severe Weather on mobile